sensor_id;sensor_type;location;lat;lon;timestamp;temperature;humidity
32965;DHT22;19317;48.226;11.686;2023-02-28T00:02:36;-1.90;99.90
32965;DHT22;19317;48.226;11.686;2023-02-28T00:07:27;-1.90;99.90
32965;DHT22;19317;48.226;11.686;2023-02-28T00:12:17;-1.90;99.90
32965;DHT22;19317;48.226;11.686;2023-02-28T00:17:08;-2.00;99.90
32965;DHT22;19317;48.226;11.686;2023-02-28T00:21:58;-2.10;99.90
32965;DHT22;19317;48.226;11.686;2023-02-28T00:26:48;-2.00;99.90
32965;DHT22;19317;48.226;11.686;2023-02-28T00:31:39;-2.10;99.90
32965;DHT22;19317;48.226;11.686;2023-02-28T00:36:29;-2.70;99.90
32965;DHT22;19317;48.226;11.686;2023-02-28T00:41:20;-2.20;99.90
32965;DHT22;19317;48.226;11.686;2023-02-28T00:46:10;-2.10;99.90
32965;DHT22;19317;48.226;11.686;2023-02-28T00:51:01;-2.30;99.90
32965;DHT22;19317;48.226;11.686;2023-02-28T00:55:52;-2.30;99.90
32965;DHT22;19317;48.226;11.686;2023-02-28T01:00:42;-2.30;99.90
32965;DHT22;19317;48.226;11.686;2023-02-28T01:05:33;-2.40;99.90
32965;DHT22;19317;48.226;11.686;2023-02-28T01:10:24;-2.40;99.90
32965;DHT22;19317;48.226;11.686;2023-02-28T01:15:15;-2.30;99.90
32965;DHT22;19317;48.226;11.686;2023-02-28T01:20:05;-2.40;99.90
32965;DHT22;19317;48.226;11.686;2023-02-28T01:24:56;-2.40;99.90
32965;DHT22;19317;48.226;11.686;2023-02-28T01:29:47;-2.30;99.90
32965;DHT22;19317;48.226;11.686;2023-02-28T01:34:37;-2.40;99.90
32965;DHT22;19317;48.226;11.686;2023-02-28T01:39:27;-2.50;99.90
32965;DHT22;19317;48.226;11.686;2023-02-28T01:49:46;-2.60;99.90
32965;DHT22;19317;48.226;11.686;2023-02-28T01:54:36;-2.50;99.90
32965;DHT22;19317;48.226;11.686;2023-02-28T02:04:30;-2.60;99.90
32965;DHT22;19317;48.226;11.686;2023-02-28T02:09:22;-2.60;99.90
32965;DHT22;19317;48.226;11.686;2023-02-28T02:19:55;-2.60;99.90
32965;DHT22;19317;48.226;11.686;2023-02-28T02:35:31;-2.60;99.90
32965;DHT22;19317;48.226;11.686;2023-02-28T02:40:35;-2.70;99.90
32965;DHT22;19317;48.226;11.686;2023-02-28T02:45:39;-2.60;99.90
32965;DHT22;19317;48.226;11.686;2023-02-28T02:50:38;-2.60;99.90
32965;DHT22;19317;48.226;11.686;2023-02-28T02:55:32;-2.60;99.90
32965;DHT22;19317;48.226;11.686;2023-02-28T03:00:26;-2.70;99.90
32965;DHT22;19317;48.226;11.686;2023-02-28T03:05:35;-2.80;99.90
32965;DHT22;19317;48.226;11.686;2023-02-28T03:10:34;-2.80;99.90
32965;DHT22;19317;48.226;11.686;2023-02-28T03:15:31;-2.80;99.90
32965;DHT22;19317;48.226;11.686;2023-02-28T03:26:21;-2.80;99.90
32965;DHT22;19317;48.226;11.686;2023-02-28T03:31:18;-2.60;99.90
32965;DHT22;19317;48.226;11.686;2023-02-28T03:36:13;-2.80;99.90
32965;DHT22;19317;48.226;11.686;2023-02-28T03:41:18;-2.90;99.90
32965;DHT22;19317;48.226;11.686;2023-02-28T03:46:12;-2.90;99.90
32965;DHT22;19317;48.226;11.686;2023-02-28T03:51:07;-2.90;99.90
32965;DHT22;19317;48.226;11.686;2023-02-28T04:01:20;-2.90;99.90
32965;DHT22;19317;48.226;11.686;2023-02-28T04:06:19;-2.80;99.90
32965;DHT22;19317;48.226;11.686;2023-02-28T04:16:22;-2.80;99.90
32965;DHT22;19317;48.226;11.686;2023-02-28T04:21:13;-2.80;99.90
32965;DHT22;19317;48.226;11.686;2023-02-28T04:26:04;-2.70;99.90
32965;DHT22;19317;48.226;11.686;2023-02-28T04:30:59;-2.70;99.90
32965;DHT22;19317;48.226;11.686;2023-02-28T04:36:04;-2.60;99.90
32965;DHT22;19317;48.226;11.686;2023-02-28T04:40:57;-2.60;99.90
32965;DHT22;19317;48.226;11.686;2023-02-28T04:45:48;-2.50;99.90
32965;DHT22;19317;48.226;11.686;2023-02-28T04:50:38;-2.50;99.90
32965;DHT22;19317;48.226;11.686;2023-02-28T04:55:29;-2.50;99.90
32965;DHT22;19317;48.226;11.686;2023-02-28T05:00:19;-2.40;99.90
32965;DHT22;19317;48.226;11.686;2023-02-28T05:05:10;-2.40;99.90
32965;DHT22;19317;48.226;11.686;2023-02-28T05:10:00;-2.50;99.90
32965;DHT22;19317;48.226;11.686;2023-02-28T05:14:51;-2.50;99.90
32965;DHT22;19317;48.226;11.686;2023-02-28T05:19:41;-2.50;99.90
32965;DHT22;19317;48.226;11.686;2023-02-28T05:24:31;-2.40;99.90
32965;DHT22;19317;48.226;11.686;2023-02-28T05:29:22;-2.40;99.90
32965;DHT22;19317;48.226;11.686;2023-02-28T05:34:12;-2.40;99.90
32965;DHT22;19317;48.226;11.686;2023-02-28T05:39:04;-2.40;99.90
32965;DHT22;19317;48.226;11.686;2023-02-28T05:43:55;-2.40;99.90
32965;DHT22;19317;48.226;11.686;2023-02-28T05:48:47;-2.30;99.90
32965;DHT22;19317;48.226;11.686;2023-02-28T05:53:37;-2.50;99.90
32965;DHT22;19317;48.226;11.686;2023-02-28T05:58:28;-2.50;99.90
32965;DHT22;19317;48.226;11.686;2023-02-28T06:03:18;-2.40;99.90
32965;DHT22;19317;48.226;11.686;2023-02-28T06:08:09;-2.30;99.90
32965;DHT22;19317;48.226;11.686;2023-02-28T06:13:04;-2.30;99.90
32965;DHT22;19317;48.226;11.686;2023-02-28T06:17:55;-2.40;99.90
32965;DHT22;19317;48.226;11.686;2023-02-28T06:22:45;-2.30;99.90
32965;DHT22;19317;48.226;11.686;2023-02-28T06:27:36;-2.40;99.90
32965;DHT22;19317;48.226;11.686;2023-02-28T06:32:26;-2.30;99.90
32965;DHT22;19317;48.226;11.686;2023-02-28T06:37:17;-2.30;99.90
32965;DHT22;19317;48.226;11.686;2023-02-28T06:42:08;-2.40;99.90
32965;DHT22;19317;48.226;11.686;2023-02-28T06:46:58;-2.40;99.90
32965;DHT22;19317;48.226;11.686;2023-02-28T06:51:49;-2.20;99.90
32965;DHT22;19317;48.226;11.686;2023-02-28T06:56:39;-2.20;99.90
32965;DHT22;19317;48.226;11.686;2023-02-28T07:01:30;-2.20;99.90
32965;DHT22;19317;48.226;11.686;2023-02-28T07:06:24;-2.20;99.90
32965;DHT22;19317;48.226;11.686;2023-02-28T07:11:14;-2.10;99.90
32965;DHT22;19317;48.226;11.686;2023-02-28T07:16:06;-2.10;99.90
32965;DHT22;19317;48.226;11.686;2023-02-28T07:20:57;-2.10;99.90
32965;DHT22;19317;48.226;11.686;2023-02-28T07:25:49;-2.20;99.90
32965;DHT22;19317;48.226;11.686;2023-02-28T07:30:40;-2.10;99.90
32965;DHT22;19317;48.226;11.686;2023-02-28T07:35:31;-2.10;99.90
32965;DHT22;19317;48.226;11.686;2023-02-28T07:40:22;-2.10;99.90
32965;DHT22;19317;48.226;11.686;2023-02-28T07:45:12;-2.10;99.90
32965;DHT22;19317;48.226;11.686;2023-02-28T07:50:03;-2.00;99.90
32965;DHT22;19317;48.226;11.686;2023-02-28T07:54:53;-1.70;99.90
32965;DHT22;19317;48.226;11.686;2023-02-28T07:59:44;-1.90;99.90
32965;DHT22;19317;48.226;11.686;2023-02-28T08:04:34;-1.90;99.90
32965;DHT22;19317;48.226;11.686;2023-02-28T08:09:25;-1.90;99.90
32965;DHT22;19317;48.226;11.686;2023-02-28T08:14:16;-2.00;99.90
32965;DHT22;19317;48.226;11.686;2023-02-28T08:19:06;-1.90;99.90
32965;DHT22;19317;48.226;11.686;2023-02-28T08:23:56;-1.90;99.90
32965;DHT22;19317;48.226;11.686;2023-02-28T08:28:47;-1.90;99.90
32965;DHT22;19317;48.226;11.686;2023-02-28T08:33:38;-1.80;99.90
32965;DHT22;19317;48.226;11.686;2023-02-28T08:38:28;-1.80;99.90
32965;DHT22;19317;48.226;11.686;2023-02-28T08:43:19;-1.70;99.90
32965;DHT22;19317;48.226;11.686;2023-02-28T08:48:09;-1.70;99.90
32965;DHT22;19317;48.226;11.686;2023-02-28T08:53:00;-1.70;99.90
32965;DHT22;19317;48.226;11.686;2023-02-28T08:57:50;-1.60;99.90
32965;DHT22;19317;48.226;11.686;2023-02-28T09:02:41;-1.50;99.90
32965;DHT22;19317;48.226;11.686;2023-02-28T09:07:31;-1.50;99.90
32965;DHT22;19317;48.226;11.686;2023-02-28T09:12:26;-1.50;99.90
32965;DHT22;19317;48.226;11.686;2023-02-28T09:17:17;-1.40;99.90
32965;DHT22;19317;48.226;11.686;2023-02-28T09:22:08;-1.50;99.90
32965;DHT22;19317;48.226;11.686;2023-02-28T09:26:58;-1.40;99.90
32965;DHT22;19317;48.226;11.686;2023-02-28T09:31:48;-1.30;99.90
32965;DHT22;19317;48.226;11.686;2023-02-28T09:36:39;-1.30;99.90
32965;DHT22;19317;48.226;11.686;2023-02-28T09:41:41;-1.20;99.90
32965;DHT22;19317;48.226;11.686;2023-02-28T09:46:37;-1.10;99.90
32965;DHT22;19317;48.226;11.686;2023-02-28T09:51:59;-1.10;99.90
32965;DHT22;19317;48.226;11.686;2023-02-28T10:06:49;-0.90;99.90
32965;DHT22;19317;48.226;11.686;2023-02-28T10:11:40;-0.90;99.90
32965;DHT22;19317;48.226;11.686;2023-02-28T10:16:40;-0.70;99.90
32965;DHT22;19317;48.226;11.686;2023-02-28T10:21:54;-0.60;99.90
32965;DHT22;19317;48.226;11.686;2023-02-28T10:26:47;-0.50;99.90
32965;DHT22;19317;48.226;11.686;2023-02-28T10:31:39;-0.50;99.90
32965;DHT22;19317;48.226;11.686;2023-02-28T10:36:29;-0.50;99.90
32965;DHT22;19317;48.226;11.686;2023-02-28T10:41:29;-0.50;99.90
32965;DHT22;19317;48.226;11.686;2023-02-28T10:46:20;-0.50;99.90
32965;DHT22;19317;48.226;11.686;2023-02-28T10:51:19;-0.20;99.90
32965;DHT22;19317;48.226;11.686;2023-02-28T11:01:00;0.20;99.90
32965;DHT22;19317;48.226;11.686;2023-02-28T11:05:50;0.30;99.90
32965;DHT22;19317;48.226;11.686;2023-02-28T11:10:46;0.30;99.90
32965;DHT22;19317;48.226;11.686;2023-02-28T11:15:37;0.40;99.90
32965;DHT22;19317;48.226;11.686;2023-02-28T11:20:30;0.50;99.90
32965;DHT22;19317;48.226;11.686;2023-02-28T11:25:31;0.60;99.90
32965;DHT22;19317;48.226;11.686;2023-02-28T11:35:26;1.00;99.90
32965;DHT22;19317;48.226;11.686;2023-02-28T11:40:28;1.20;99.90
32965;DHT22;19317;48.226;11.686;2023-02-28T11:56:25;1.60;99.90
32965;DHT22;19317;48.226;11.686;2023-02-28T12:07:09;1.60;99.90
32965;DHT22;19317;48.226;11.686;2023-02-28T12:22:28;1.90;99.90
32965;DHT22;19317;48.226;11.686;2023-02-28T12:27:22;2.10;99.90
32965;DHT22;19317;48.226;11.686;2023-02-28T12:32:21;2.30;99.90
32965;DHT22;19317;48.226;11.686;2023-02-28T12:37:20;2.30;99.90
32965;DHT22;19317;48.226;11.686;2023-02-28T12:42:38;2.50;99.90
32965;DHT22;19317;48.226;11.686;2023-02-28T12:47:26;2.60;99.90
32965;DHT22;19317;48.226;11.686;2023-02-28T12:52:23;2.50;99.90
32965;DHT22;19317;48.226;11.686;2023-02-28T12:57:32;2.60;99.90
32965;DHT22;19317;48.226;11.686;2023-02-28T13:12:20;3.00;99.90
32965;DHT22;19317;48.226;11.686;2023-02-28T13:17:13;3.40;99.90
32965;DHT22;19317;48.226;11.686;2023-02-28T13:22:19;4.30;99.90
32965;DHT22;19317;48.226;11.686;2023-02-28T13:47:22;4.40;99.90
32965;DHT22;19317;48.226;11.686;2023-02-28T13:52:20;4.30;99.90
32965;DHT22;19317;48.226;11.686;2023-02-28T14:07:50;4.60;99.90
32965;DHT22;19317;48.226;11.686;2023-02-28T14:17:44;4.90;99.90
32965;DHT22;19317;48.226;11.686;2023-02-28T14:23:02;4.50;99.90
32965;DHT22;19317;48.226;11.686;2023-02-28T14:33:31;4.90;99.90
32965;DHT22;19317;48.226;11.686;2023-02-28T14:38:29;4.90;99.90
32965;DHT22;19317;48.226;11.686;2023-02-28T14:43:24;5.10;99.90
32965;DHT22;19317;48.226;11.686;2023-02-28T14:48:16;5.30;99.90
32965;DHT22;19317;48.226;11.686;2023-02-28T14:53:17;5.60;99.90
32965;DHT22;19317;48.226;11.686;2023-02-28T14:58:27;5.30;99.90
32965;DHT22;19317;48.226;11.686;2023-02-28T15:03:20;5.60;99.90
32965;DHT22;19317;48.226;11.686;2023-02-28T15:08:14;5.70;99.90
32965;DHT22;19317;48.226;11.686;2023-02-28T15:13:08;5.80;99.90
32965;DHT22;19317;48.226;11.686;2023-02-28T15:18:03;5.20;99.90
32965;DHT22;19317;48.226;11.686;2023-02-28T15:22:56;4.70;99.90
32965;DHT22;19317;48.226;11.686;2023-02-28T15:27:50;4.70;99.90
32965;DHT22;19317;48.226;11.686;2023-02-28T15:32:41;4.80;99.90
32965;DHT22;19317;48.226;11.686;2023-02-28T15:37:41;4.90;99.90
32965;DHT22;19317;48.226;11.686;2023-02-28T15:42:35;4.60;99.90
32965;DHT22;19317;48.226;11.686;2023-02-28T15:47:28;4.50;99.90
32965;DHT22;19317;48.226;11.686;2023-02-28T15:52:24;4.70;99.90
32965;DHT22;19317;48.226;11.686;2023-02-28T15:57:20;4.40;99.90
32965;DHT22;19317;48.226;11.686;2023-02-28T16:02:20;4.60;99.90
32965;DHT22;19317;48.226;11.686;2023-02-28T16:07:17;4.50;99.90
32965;DHT22;19317;48.226;11.686;2023-02-28T16:12:08;4.40;99.90
32965;DHT22;19317;48.226;11.686;2023-02-28T16:17:06;4.40;99.90
32965;DHT22;19317;48.226;11.686;2023-02-28T16:21:57;4.20;99.90
32965;DHT22;19317;48.226;11.686;2023-02-28T16:26:50;4.00;99.90
32965;DHT22;19317;48.226;11.686;2023-02-28T16:31:41;3.60;99.90
32965;DHT22;19317;48.226;11.686;2023-02-28T16:36:31;3.70;99.90
32965;DHT22;19317;48.226;11.686;2023-02-28T16:41:25;3.80;99.90
32965;DHT22;19317;48.226;11.686;2023-02-28T16:46:16;3.70;99.90
32965;DHT22;19317;48.226;11.686;2023-02-28T16:51:15;3.60;99.90
32965;DHT22;19317;48.226;11.686;2023-02-28T16:56:08;3.60;99.90
32965;DHT22;19317;48.226;11.686;2023-02-28T17:01:03;3.50;99.90
32965;DHT22;19317;48.226;11.686;2023-02-28T17:05:53;3.30;99.90
32965;DHT22;19317;48.226;11.686;2023-02-28T17:10:44;3.30;99.90
32965;DHT22;19317;48.226;11.686;2023-02-28T17:15:36;3.20;99.90
32965;DHT22;19317;48.226;11.686;2023-02-28T17:20:27;3.00;99.90
32965;DHT22;19317;48.226;11.686;2023-02-28T17:25:18;3.20;99.90
32965;DHT22;19317;48.226;11.686;2023-02-28T17:30:20;3.30;99.90
32965;DHT22;19317;48.226;11.686;2023-02-28T17:35:12;3.30;99.90
32965;DHT22;19317;48.226;11.686;2023-02-28T17:40:03;3.30;99.90
32965;DHT22;19317;48.226;11.686;2023-02-28T17:44:54;3.40;99.90
32965;DHT22;19317;48.226;11.686;2023-02-28T17:49:45;3.40;99.90
32965;DHT22;19317;48.226;11.686;2023-02-28T17:54:35;3.20;99.90
32965;DHT22;19317;48.226;11.686;2023-02-28T17:59:26;3.20;99.90
32965;DHT22;19317;48.226;11.686;2023-02-28T18:04:16;3.30;99.90
32965;DHT22;19317;48.226;11.686;2023-02-28T18:09:08;3.20;99.90
32965;DHT22;19317;48.226;11.686;2023-02-28T18:13:58;2.90;99.90
32965;DHT22;19317;48.226;11.686;2023-02-28T18:18:49;2.80;99.90
32965;DHT22;19317;48.226;11.686;2023-02-28T18:23:40;2.80;99.90
32965;DHT22;19317;48.226;11.686;2023-02-28T18:28:31;2.80;99.90
32965;DHT22;19317;48.226;11.686;2023-02-28T18:33:21;2.60;99.90
32965;DHT22;19317;48.226;11.686;2023-02-28T18:38:16;2.60;99.90
32965;DHT22;19317;48.226;11.686;2023-02-28T18:43:08;2.50;99.90
32965;DHT22;19317;48.226;11.686;2023-02-28T18:47:58;2.70;99.90
32965;DHT22;19317;48.226;11.686;2023-02-28T18:52:49;2.50;99.90
32965;DHT22;19317;48.226;11.686;2023-02-28T18:57:39;2.60;99.90
32965;DHT22;19317;48.226;11.686;2023-02-28T19:02:30;2.50;99.90
32965;DHT22;19317;48.226;11.686;2023-02-28T19:07:20;2.40;99.90
32965;DHT22;19317;48.226;11.686;2023-02-28T19:12:11;2.40;99.90
32965;DHT22;19317;48.226;11.686;2023-02-28T19:17:01;2.20;99.90
32965;DHT22;19317;48.226;11.686;2023-02-28T19:21:51;2.30;99.90
32965;DHT22;19317;48.226;11.686;2023-02-28T19:26:42;2.20;99.90
32965;DHT22;19317;48.226;11.686;2023-02-28T19:31:32;2.10;99.90
32965;DHT22;19317;48.226;11.686;2023-02-28T19:36:23;2.10;99.90
32965;DHT22;19317;48.226;11.686;2023-02-28T19:41:15;2.00;99.90
32965;DHT22;19317;48.226;11.686;2023-02-28T19:46:06;2.10;99.90
32965;DHT22;19317;48.226;11.686;2023-02-28T19:51:02;2.10;99.90
32965;DHT22;19317;48.226;11.686;2023-02-28T19:55:54;2.00;99.90
32965;DHT22;19317;48.226;11.686;2023-02-28T20:00:44;2.10;99.90
32965;DHT22;19317;48.226;11.686;2023-02-28T20:05:35;2.00;99.90
32965;DHT22;19317;48.226;11.686;2023-02-28T20:10:25;2.10;99.90
32965;DHT22;19317;48.226;11.686;2023-02-28T20:15:16;2.10;99.90
32965;DHT22;19317;48.226;11.686;2023-02-28T20:20:07;2.10;99.90
32965;DHT22;19317;48.226;11.686;2023-02-28T20:24:58;2.10;99.90
32965;DHT22;19317;48.226;11.686;2023-02-28T20:29:48;2.10;99.90
32965;DHT22;19317;48.226;11.686;2023-02-28T20:34:39;2.00;99.90
32965;DHT22;19317;48.226;11.686;2023-02-28T20:39:29;2.00;99.90
32965;DHT22;19317;48.226;11.686;2023-02-28T20:44:20;2.00;99.90
32965;DHT22;19317;48.226;11.686;2023-02-28T20:49:10;2.10;99.90
32965;DHT22;19317;48.226;11.686;2023-02-28T20:54:01;2.00;99.90
32965;DHT22;19317;48.226;11.686;2023-02-28T20:58:53;2.10;99.90
32965;DHT22;19317;48.226;11.686;2023-02-28T21:03:49;2.10;99.90
32965;DHT22;19317;48.226;11.686;2023-02-28T21:08:40;2.10;99.90
32965;DHT22;19317;48.226;11.686;2023-02-28T21:13:31;2.00;99.90
32965;DHT22;19317;48.226;11.686;2023-02-28T21:18:22;2.30;99.90
32965;DHT22;19317;48.226;11.686;2023-02-28T21:23:12;2.20;99.90
32965;DHT22;19317;48.226;11.686;2023-02-28T21:28:03;2.00;99.90
32965;DHT22;19317;48.226;11.686;2023-02-28T21:32:53;1.90;99.90
32965;DHT22;19317;48.226;11.686;2023-02-28T21:37:44;1.90;99.90
32965;DHT22;19317;48.226;11.686;2023-02-28T21:42:34;1.80;99.90
32965;DHT22;19317;48.226;11.686;2023-02-28T21:47:25;1.80;99.90
32965;DHT22;19317;48.226;11.686;2023-02-28T21:52:17;1.80;99.90
32965;DHT22;19317;48.226;11.686;2023-02-28T21:57:07;1.80;99.90
32965;DHT22;19317;48.226;11.686;2023-02-28T22:01:58;1.70;99.90
32965;DHT22;19317;48.226;11.686;2023-02-28T22:06:53;1.70;99.90
32965;DHT22;19317;48.226;11.686;2023-02-28T22:11:44;1.80;99.90
32965;DHT22;19317;48.226;11.686;2023-02-28T22:16:35;1.80;99.90
32965;DHT22;19317;48.226;11.686;2023-02-28T22:21:26;1.70;99.90
32965;DHT22;19317;48.226;11.686;2023-02-28T22:26:20;1.60;99.90
32965;DHT22;19317;48.226;11.686;2023-02-28T22:36:17;1.70;99.90
32965;DHT22;19317;48.226;11.686;2023-02-28T22:41:08;1.70;99.90
32965;DHT22;19317;48.226;11.686;2023-02-28T22:46:03;1.60;99.90
32965;DHT22;19317;48.226;11.686;2023-02-28T22:51:04;1.60;99.90
32965;DHT22;19317;48.226;11.686;2023-02-28T22:55:55;1.60;99.90
32965;DHT22;19317;48.226;11.686;2023-02-28T23:00:46;1.60;99.90
32965;DHT22;19317;48.226;11.686;2023-02-28T23:05:36;1.70;99.90
32965;DHT22;19317;48.226;11.686;2023-02-28T23:10:27;1.70;99.90
32965;DHT22;19317;48.226;11.686;2023-02-28T23:15:19;1.60;99.90
32965;DHT22;19317;48.226;11.686;2023-02-28T23:20:14;1.60;99.90
32965;DHT22;19317;48.226;11.686;2023-02-28T23:25:06;1.60;99.90
32965;DHT22;19317;48.226;11.686;2023-02-28T23:29:56;1.60;99.90
32965;DHT22;19317;48.226;11.686;2023-02-28T23:34:47;1.60;99.90
32965;DHT22;19317;48.226;11.686;2023-02-28T23:39:37;1.60;99.90
32965;DHT22;19317;48.226;11.686;2023-02-28T23:44:28;1.60;99.90
32965;DHT22;19317;48.226;11.686;2023-02-28T23:49:19;1.50;99.90
32965;DHT22;19317;48.226;11.686;2023-02-28T23:54:10;1.60;99.90
32965;DHT22;19317;48.226;11.686;2023-02-28T23:59:01;1.60;99.90
